sensor_id;sensor_type;location;lat;lon;timestamp;temperature;humidity
10459;DHT22;5277;48.722;8.736;2024-01-15T00:00:47;-0.40;99.60
10459;DHT22;5277;48.722;8.736;2024-01-15T00:03:13;-0.40;99.50
10459;DHT22;5277;48.722;8.736;2024-01-15T00:05:39;-0.30;99.70
10459;DHT22;5277;48.722;8.736;2024-01-15T00:08:04;-0.30;99.50
10459;DHT22;5277;48.722;8.736;2024-01-15T00:10:30;-0.30;99.40
10459;DHT22;5277;48.722;8.736;2024-01-15T00:12:56;-0.30;99.30
10459;DHT22;5277;48.722;8.736;2024-01-15T00:15:21;-0.30;99.30
10459;DHT22;5277;48.722;8.736;2024-01-15T00:17:47;-0.30;99.40
10459;DHT22;5277;48.722;8.736;2024-01-15T00:20:13;-0.30;99.50
10459;DHT22;5277;48.722;8.736;2024-01-15T00:22:39;-0.30;99.50
10459;DHT22;5277;48.722;8.736;2024-01-15T00:25:05;-0.30;99.30
10459;DHT22;5277;48.722;8.736;2024-01-15T00:27:30;-0.30;99.30
10459;DHT22;5277;48.722;8.736;2024-01-15T00:29:56;-0.20;99.30
10459;DHT22;5277;48.722;8.736;2024-01-15T00:32:21;-0.30;99.50
10459;DHT22;5277;48.722;8.736;2024-01-15T00:34:47;-0.20;99.60
10459;DHT22;5277;48.722;8.736;2024-01-15T00:37:13;-0.20;99.40
10459;DHT22;5277;48.722;8.736;2024-01-15T00:39:38;-0.20;99.40
10459;DHT22;5277;48.722;8.736;2024-01-15T00:42:04;-0.20;99.40
10459;DHT22;5277;48.722;8.736;2024-01-15T00:44:30;-0.20;99.40
10459;DHT22;5277;48.722;8.736;2024-01-15T00:46:55;-0.20;99.40
10459;DHT22;5277;48.722;8.736;2024-01-15T00:49:21;-0.20;99.40
10459;DHT22;5277;48.722;8.736;2024-01-15T00:51:47;-0.20;99.70
10459;DHT22;5277;48.722;8.736;2024-01-15T00:54:13;-0.20;99.60
10459;DHT22;5277;48.722;8.736;2024-01-15T00:56:38;-0.10;99.40
10459;DHT22;5277;48.722;8.736;2024-01-15T00:59:04;-0.20;99.50
10459;DHT22;5277;48.722;8.736;2024-01-15T01:01:30;-0.20;99.60
10459;DHT22;5277;48.722;8.736;2024-01-15T01:03:55;-0.20;99.70
10459;DHT22;5277;48.722;8.736;2024-01-15T01:06:21;-0.10;99.70
10459;DHT22;5277;48.722;8.736;2024-01-15T01:08:47;-0.10;99.50
10459;DHT22;5277;48.722;8.736;2024-01-15T01:11:15;-0.10;99.50
10459;DHT22;5277;48.722;8.736;2024-01-15T01:13:41;-0.20;99.70
10459;DHT22;5277;48.722;8.736;2024-01-15T01:16:07;-0.20;99.60
10459;DHT22;5277;48.722;8.736;2024-01-15T01:18:34;-0.20;99.40
10459;DHT22;5277;48.722;8.736;2024-01-15T01:21:00;-0.20;99.50
10459;DHT22;5277;48.722;8.736;2024-01-15T01:23:26;-0.30;99.30
10459;DHT22;5277;48.722;8.736;2024-01-15T01:25:51;-0.30;99.50
10459;DHT22;5277;48.722;8.736;2024-01-15T01:28:17;-0.30;99.90
10459;DHT22;5277;48.722;8.736;2024-01-15T01:30:42;-0.30;99.90
10459;DHT22;5277;48.722;8.736;2024-01-15T01:33:08;-0.30;99.70
10459;DHT22;5277;48.722;8.736;2024-01-15T01:35:33;-0.30;99.70
10459;DHT22;5277;48.722;8.736;2024-01-15T01:37:59;-0.30;99.80
10459;DHT22;5277;48.722;8.736;2024-01-15T01:40:25;-0.30;99.90
10459;DHT22;5277;48.722;8.736;2024-01-15T01:42:50;-0.30;99.80
10459;DHT22;5277;48.722;8.736;2024-01-15T01:45:16;-0.40;99.80
10459;DHT22;5277;48.722;8.736;2024-01-15T01:47:41;-0.50;99.90
10459;DHT22;5277;48.722;8.736;2024-01-15T01:50:07;-0.60;99.90
10459;DHT22;5277;48.722;8.736;2024-01-15T01:52:33;-0.70;99.90
10459;DHT22;5277;48.722;8.736;2024-01-15T01:55:00;-0.70;99.90
10459;DHT22;5277;48.722;8.736;2024-01-15T01:57:28;-0.80;99.90
10459;DHT22;5277;48.722;8.736;2024-01-15T01:59:54;-0.80;99.90
10459;DHT22;5277;48.722;8.736;2024-01-15T02:02:20;-0.80;99.90
10459;DHT22;5277;48.722;8.736;2024-01-15T02:04:47;-0.80;99.90
10459;DHT22;5277;48.722;8.736;2024-01-15T02:07:13;-0.90;99.90
10459;DHT22;5277;48.722;8.736;2024-01-15T02:09:39;-0.80;99.90
10459;DHT22;5277;48.722;8.736;2024-01-15T02:12:05;-0.90;99.90
10459;DHT22;5277;48.722;8.736;2024-01-15T02:14:31;-0.80;99.90
10459;DHT22;5277;48.722;8.736;2024-01-15T02:16:56;-0.80;99.90
10459;DHT22;5277;48.722;8.736;2024-01-15T02:19:22;-0.80;99.90
10459;DHT22;5277;48.722;8.736;2024-01-15T02:21:47;-0.70;99.90
10459;DHT22;5277;48.722;8.736;2024-01-15T02:24:13;-0.70;99.90
10459;DHT22;5277;48.722;8.736;2024-01-15T02:26:39;-0.70;99.90
10459;DHT22;5277;48.722;8.736;2024-01-15T02:29:07;-0.70;99.90
10459;DHT22;5277;48.722;8.736;2024-01-15T02:31:36;-0.70;99.90
10459;DHT22;5277;48.722;8.736;2024-01-15T02:34:01;-0.70;99.90
10459;DHT22;5277;48.722;8.736;2024-01-15T02:36:27;-0.70;99.90
10459;DHT22;5277;48.722;8.736;2024-01-15T02:38:53;-0.70;99.90
10459;DHT22;5277;48.722;8.736;2024-01-15T02:41:18;-0.60;99.90
10459;DHT22;5277;48.722;8.736;2024-01-15T02:43:44;-0.60;99.90
10459;DHT22;5277;48.722;8.736;2024-01-15T02:46:09;-0.50;99.90
10459;DHT22;5277;48.722;8.736;2024-01-15T02:48:35;-0.50;99.90
10459;DHT22;5277;48.722;8.736;2024-01-15T02:51:01;-0.50;99.90
10459;DHT22;5277;48.722;8.736;2024-01-15T02:53:27;-0.50;99.90
10459;DHT22;5277;48.722;8.736;2024-01-15T02:55:53;-0.50;99.90
10459;DHT22;5277;48.722;8.736;2024-01-15T02:58:18;-0.40;99.90
10459;DHT22;5277;48.722;8.736;2024-01-15T03:00:44;-0.40;99.90
10459;DHT22;5277;48.722;8.736;2024-01-15T03:03:11;-0.40;99.90
10459;DHT22;5277;48.722;8.736;2024-01-15T03:05:37;-0.40;99.90
10459;DHT22;5277;48.722;8.736;2024-01-15T03:08:03;-0.40;99.90
10459;DHT22;5277;48.722;8.736;2024-01-15T03:10:29;-0.30;99.90
10459;DHT22;5277;48.722;8.736;2024-01-15T03:12:54;-0.30;99.90
10459;DHT22;5277;48.722;8.736;2024-01-15T03:15:20;-0.30;99.90
10459;DHT22;5277;48.722;8.736;2024-01-15T03:17:46;-0.20;99.90
10459;DHT22;5277;48.722;8.736;2024-01-15T03:20:11;-0.30;99.90
10459;DHT22;5277;48.722;8.736;2024-01-15T03:22:37;-0.30;99.90
10459;DHT22;5277;48.722;8.736;2024-01-15T03:25:04;-0.20;99.90
10459;DHT22;5277;48.722;8.736;2024-01-15T03:27:29;-0.20;99.90
10459;DHT22;5277;48.722;8.736;2024-01-15T03:29:55;-0.10;99.90
10459;DHT22;5277;48.722;8.736;2024-01-15T03:32:21;0.00;99.90
10459;DHT22;5277;48.722;8.736;2024-01-15T03:34:46;0.00;99.90
10459;DHT22;5277;48.722;8.736;2024-01-15T03:37:13;0.00;99.90
10459;DHT22;5277;48.722;8.736;2024-01-15T03:39:38;0.10;99.90
10459;DHT22;5277;48.722;8.736;2024-01-15T03:42:04;0.10;99.90
10459;DHT22;5277;48.722;8.736;2024-01-15T03:44:30;0.00;99.90
10459;DHT22;5277;48.722;8.736;2024-01-15T03:46:55;0.10;99.90
10459;DHT22;5277;48.722;8.736;2024-01-15T03:49:21;0.20;99.90
10459;DHT22;5277;48.722;8.736;2024-01-15T03:51:46;0.10;99.90
10459;DHT22;5277;48.722;8.736;2024-01-15T03:54:12;0.20;99.90
10459;DHT22;5277;48.722;8.736;2024-01-15T03:56:38;0.20;99.90
10459;DHT22;5277;48.722;8.736;2024-01-15T03:59:03;0.20;99.90
10459;DHT22;5277;48.722;8.736;2024-01-15T04:01:29;0.30;99.90
10459;DHT22;5277;48.722;8.736;2024-01-15T04:03:55;0.20;99.90
10459;DHT22;5277;48.722;8.736;2024-01-15T04:06:20;0.30;99.90
10459;DHT22;5277;48.722;8.736;2024-01-15T04:08:46;0.30;99.90
10459;DHT22;5277;48.722;8.736;2024-01-15T04:11:12;0.30;99.90
10459;DHT22;5277;48.722;8.736;2024-01-15T04:13:37;0.40;99.90
10459;DHT22;5277;48.722;8.736;2024-01-15T04:16:03;0.40;99.90
10459;DHT22;5277;48.722;8.736;2024-01-15T04:18:29;0.40;99.90
10459;DHT22;5277;48.722;8.736;2024-01-15T04:20:54;0.40;99.90
10459;DHT22;5277;48.722;8.736;2024-01-15T04:23:20;0.40;99.90
10459;DHT22;5277;48.722;8.736;2024-01-15T04:25:45;0.50;99.90
10459;DHT22;5277;48.722;8.736;2024-01-15T04:28:12;0.40;99.90
10459;DHT22;5277;48.722;8.736;2024-01-15T04:30:37;0.50;99.90
10459;DHT22;5277;48.722;8.736;2024-01-15T04:33:03;0.50;99.90
10459;DHT22;5277;48.722;8.736;2024-01-15T04:35:29;0.50;99.90
10459;DHT22;5277;48.722;8.736;2024-01-15T04:37:55;0.50;99.90
10459;DHT22;5277;48.722;8.736;2024-01-15T04:40:21;0.50;99.90
10459;DHT22;5277;48.722;8.736;2024-01-15T04:42:46;0.50;99.90
10459;DHT22;5277;48.722;8.736;2024-01-15T04:45:12;0.50;99.90
10459;DHT22;5277;48.722;8.736;2024-01-15T04:47:37;0.60;99.90
10459;DHT22;5277;48.722;8.736;2024-01-15T04:50:04;0.60;99.90
10459;DHT22;5277;48.722;8.736;2024-01-15T04:52:30;0.60;99.90
10459;DHT22;5277;48.722;8.736;2024-01-15T04:54:55;0.70;99.90
10459;DHT22;5277;48.722;8.736;2024-01-15T04:57:21;0.70;99.90
10459;DHT22;5277;48.722;8.736;2024-01-15T04:59:46;0.70;99.90
10459;DHT22;5277;48.722;8.736;2024-01-15T05:02:12;0.70;99.90
10459;DHT22;5277;48.722;8.736;2024-01-15T05:04:37;0.70;99.90
10459;DHT22;5277;48.722;8.736;2024-01-15T05:07:03;0.70;99.90
10459;DHT22;5277;48.722;8.736;2024-01-15T05:09:28;0.70;99.90
10459;DHT22;5277;48.722;8.736;2024-01-15T05:11:54;0.70;99.90
10459;DHT22;5277;48.722;8.736;2024-01-15T05:14:20;0.70;99.90
10459;DHT22;5277;48.722;8.736;2024-01-15T05:16:51;0.80;99.90
10459;DHT22;5277;48.722;8.736;2024-01-15T05:19:18;0.80;99.90
10459;DHT22;5277;48.722;8.736;2024-01-15T05:21:44;0.80;99.90
10459;DHT22;5277;48.722;8.736;2024-01-15T05:24:09;0.80;99.90
10459;DHT22;5277;48.722;8.736;2024-01-15T05:26:35;0.70;99.90
10459;DHT22;5277;48.722;8.736;2024-01-15T05:29:00;0.70;99.90
10459;DHT22;5277;48.722;8.736;2024-01-15T05:31:26;0.70;99.90
10459;DHT22;5277;48.722;8.736;2024-01-15T05:33:51;0.70;99.90
10459;DHT22;5277;48.722;8.736;2024-01-15T05:36:17;0.60;99.90
10459;DHT22;5277;48.722;8.736;2024-01-15T05:38:42;0.70;99.90
10459;DHT22;5277;48.722;8.736;2024-01-15T05:41:08;0.70;99.90
10459;DHT22;5277;48.722;8.736;2024-01-15T05:43:34;0.70;99.90
10459;DHT22;5277;48.722;8.736;2024-01-15T05:45:59;0.70;99.90
10459;DHT22;5277;48.722;8.736;2024-01-15T05:48:25;0.70;99.90
10459;DHT22;5277;48.722;8.736;2024-01-15T05:50:50;0.70;99.90
10459;DHT22;5277;48.722;8.736;2024-01-15T05:53:16;0.60;99.90
10459;DHT22;5277;48.722;8.736;2024-01-15T05:55:41;0.60;99.90
10459;DHT22;5277;48.722;8.736;2024-01-15T05:58:07;0.60;99.90
10459;DHT22;5277;48.722;8.736;2024-01-15T06:00:32;0.60;99.90
10459;DHT22;5277;48.722;8.736;2024-01-15T06:03:00;0.60;99.90
10459;DHT22;5277;48.722;8.736;2024-01-15T06:05:26;0.60;99.90
10459;DHT22;5277;48.722;8.736;2024-01-15T06:07:51;0.60;99.90
10459;DHT22;5277;48.722;8.736;2024-01-15T06:10:17;0.60;99.90
10459;DHT22;5277;48.722;8.736;2024-01-15T06:12:46;0.60;99.90
10459;DHT22;5277;48.722;8.736;2024-01-15T06:15:11;0.60;99.90
10459;DHT22;5277;48.722;8.736;2024-01-15T06:17:37;0.70;99.90
10459;DHT22;5277;48.722;8.736;2024-01-15T06:20:03;0.70;99.90
10459;DHT22;5277;48.722;8.736;2024-01-15T06:22:29;0.60;99.90
10459;DHT22;5277;48.722;8.736;2024-01-15T06:24:55;0.70;99.90
10459;DHT22;5277;48.722;8.736;2024-01-15T06:27:21;0.70;99.90
10459;DHT22;5277;48.722;8.736;2024-01-15T06:29:46;0.70;99.90
10459;DHT22;5277;48.722;8.736;2024-01-15T06:32:12;0.70;99.90
10459;DHT22;5277;48.722;8.736;2024-01-15T06:34:38;0.70;99.90
10459;DHT22;5277;48.722;8.736;2024-01-15T06:37:04;0.70;99.90
10459;DHT22;5277;48.722;8.736;2024-01-15T06:39:30;0.70;99.90
10459;DHT22;5277;48.722;8.736;2024-01-15T06:41:55;0.60;99.90
10459;DHT22;5277;48.722;8.736;2024-01-15T06:44:21;0.60;99.90
10459;DHT22;5277;48.722;8.736;2024-01-15T06:46:47;0.60;99.90
10459;DHT22;5277;48.722;8.736;2024-01-15T06:49:13;0.70;99.90
10459;DHT22;5277;48.722;8.736;2024-01-15T06:51:39;0.70;99.90
10459;DHT22;5277;48.722;8.736;2024-01-15T06:54:04;0.70;99.90
10459;DHT22;5277;48.722;8.736;2024-01-15T06:56:31;0.70;99.90
10459;DHT22;5277;48.722;8.736;2024-01-15T06:58:57;0.60;99.90
10459;DHT22;5277;48.722;8.736;2024-01-15T07:01:23;0.60;99.90
10459;DHT22;5277;48.722;8.736;2024-01-15T07:03:48;0.60;99.90
10459;DHT22;5277;48.722;8.736;2024-01-15T07:06:14;0.60;99.90
10459;DHT22;5277;48.722;8.736;2024-01-15T07:08:40;0.60;99.90
10459;DHT22;5277;48.722;8.736;2024-01-15T07:11:06;0.60;99.90
10459;DHT22;5277;48.722;8.736;2024-01-15T07:13:32;0.70;99.90
10459;DHT22;5277;48.722;8.736;2024-01-15T07:15:58;0.70;99.90
10459;DHT22;5277;48.722;8.736;2024-01-15T07:18:24;0.70;99.80
10459;DHT22;5277;48.722;8.736;2024-01-15T07:20:50;0.80;99.60
10459;DHT22;5277;48.722;8.736;2024-01-15T07:23:16;0.80;99.30
10459;DHT22;5277;48.722;8.736;2024-01-15T07:25:42;0.80;99.30
10459;DHT22;5277;48.722;8.736;2024-01-15T07:28:08;0.90;99.20
10459;DHT22;5277;48.722;8.736;2024-01-15T07:30:33;0.90;99.30
10459;DHT22;5277;48.722;8.736;2024-01-15T07:32:59;0.90;99.10
10459;DHT22;5277;48.722;8.736;2024-01-15T07:35:25;0.90;98.80
10459;DHT22;5277;48.722;8.736;2024-01-15T07:37:50;0.90;98.90
10459;DHT22;5277;48.722;8.736;2024-01-15T07:40:16;0.90;98.90
10459;DHT22;5277;48.722;8.736;2024-01-15T07:42:41;1.00;98.90
10459;DHT22;5277;48.722;8.736;2024-01-15T07:45:09;1.00;98.80
10459;DHT22;5277;48.722;8.736;2024-01-15T07:47:34;1.10;98.60
10459;DHT22;5277;48.722;8.736;2024-01-15T07:50:00;1.10;98.80
10459;DHT22;5277;48.722;8.736;2024-01-15T07:52:26;1.10;98.80
10459;DHT22;5277;48.722;8.736;2024-01-15T07:54:51;1.10;98.80
10459;DHT22;5277;48.722;8.736;2024-01-15T07:57:17;1.10;98.30
10459;DHT22;5277;48.722;8.736;2024-01-15T07:59:42;1.20;98.30
10459;DHT22;5277;48.722;8.736;2024-01-15T08:02:08;1.20;98.40
10459;DHT22;5277;48.722;8.736;2024-01-15T08:04:33;1.20;98.40
10459;DHT22;5277;48.722;8.736;2024-01-15T08:06:59;1.20;98.30
10459;DHT22;5277;48.722;8.736;2024-01-15T08:09:24;1.20;98.20
10459;DHT22;5277;48.722;8.736;2024-01-15T08:11:50;1.30;98.00
10459;DHT22;5277;48.722;8.736;2024-01-15T08:14:16;1.20;98.10
10459;DHT22;5277;48.722;8.736;2024-01-15T08:16:41;1.30;98.40
10459;DHT22;5277;48.722;8.736;2024-01-15T08:19:09;1.40;97.80
10459;DHT22;5277;48.722;8.736;2024-01-15T08:21:34;1.40;97.80
10459;DHT22;5277;48.722;8.736;2024-01-15T08:24:01;1.40;98.10
10459;DHT22;5277;48.722;8.736;2024-01-15T08:26:30;1.50;97.90
10459;DHT22;5277;48.722;8.736;2024-01-15T08:28:55;1.50;97.70
10459;DHT22;5277;48.722;8.736;2024-01-15T08:31:21;1.50;97.10
10459;DHT22;5277;48.722;8.736;2024-01-15T08:33:47;1.50;97.10
10459;DHT22;5277;48.722;8.736;2024-01-15T08:36:12;1.60;97.00
10459;DHT22;5277;48.722;8.736;2024-01-15T08:38:38;1.60;96.60
10459;DHT22;5277;48.722;8.736;2024-01-15T08:41:04;1.60;96.60
10459;DHT22;5277;48.722;8.736;2024-01-15T08:43:30;1.60;96.20
10459;DHT22;5277;48.722;8.736;2024-01-15T08:45:58;1.70;96.20
10459;DHT22;5277;48.722;8.736;2024-01-15T08:48:24;1.70;96.30
10459;DHT22;5277;48.722;8.736;2024-01-15T08:50:53;1.70;96.60
10459;DHT22;5277;48.722;8.736;2024-01-15T08:53:18;1.80;96.90
10459;DHT22;5277;48.722;8.736;2024-01-15T08:55:44;1.80;97.00
10459;DHT22;5277;48.722;8.736;2024-01-15T08:58:10;1.80;97.20
10459;DHT22;5277;48.722;8.736;2024-01-15T09:00:36;1.90;97.30
10459;DHT22;5277;48.722;8.736;2024-01-15T09:03:02;1.80;97.80
10459;DHT22;5277;48.722;8.736;2024-01-15T09:05:27;1.80;97.60
10459;DHT22;5277;48.722;8.736;2024-01-15T09:07:53;1.90;97.90
10459;DHT22;5277;48.722;8.736;2024-01-15T09:10:19;1.80;97.90
10459;DHT22;5277;48.722;8.736;2024-01-15T09:12:45;1.90;98.00
10459;DHT22;5277;48.722;8.736;2024-01-15T09:15:11;1.90;98.00
10459;DHT22;5277;48.722;8.736;2024-01-15T09:17:36;1.80;98.10
10459;DHT22;5277;48.722;8.736;2024-01-15T09:20:02;1.80;98.30
10459;DHT22;5277;48.722;8.736;2024-01-15T09:22:29;1.90;97.90
10459;DHT22;5277;48.722;8.736;2024-01-15T09:24:55;1.90;97.60
10459;DHT22;5277;48.722;8.736;2024-01-15T09:27:21;1.90;97.60
10459;DHT22;5277;48.722;8.736;2024-01-15T09:29:46;2.00;97.70
10459;DHT22;5277;48.722;8.736;2024-01-15T09:32:12;2.00;97.40
10459;DHT22;5277;48.722;8.736;2024-01-15T09:34:38;2.10;97.30
10459;DHT22;5277;48.722;8.736;2024-01-15T09:37:04;2.10;97.30
10459;DHT22;5277;48.722;8.736;2024-01-15T09:39:30;2.10;97.40
10459;DHT22;5277;48.722;8.736;2024-01-15T09:41:57;2.10;97.20
10459;DHT22;5277;48.722;8.736;2024-01-15T09:44:23;2.20;97.20
10459;DHT22;5277;48.722;8.736;2024-01-15T09:46:49;2.30;96.90
10459;DHT22;5277;48.722;8.736;2024-01-15T09:49:16;2.30;96.60
10459;DHT22;5277;48.722;8.736;2024-01-15T09:51:42;2.30;96.70
10459;DHT22;5277;48.722;8.736;2024-01-15T09:54:08;2.30;96.50
10459;DHT22;5277;48.722;8.736;2024-01-15T09:56:34;2.40;96.80
10459;DHT22;5277;48.722;8.736;2024-01-15T09:59:01;2.30;96.20
10459;DHT22;5277;48.722;8.736;2024-01-15T10:01:27;2.40;96.50
10459;DHT22;5277;48.722;8.736;2024-01-15T10:03:54;2.50;96.40
10459;DHT22;5277;48.722;8.736;2024-01-15T10:06:21;2.50;96.50
10459;DHT22;5277;48.722;8.736;2024-01-15T10:08:51;2.50;96.20
10459;DHT22;5277;48.722;8.736;2024-01-15T10:11:17;2.40;96.00
10459;DHT22;5277;48.722;8.736;2024-01-15T10:13:46;2.40;96.20
10459;DHT22;5277;48.722;8.736;2024-01-15T10:16:12;2.50;96.30
10459;DHT22;5277;48.722;8.736;2024-01-15T10:18:38;2.50;96.30
10459;DHT22;5277;48.722;8.736;2024-01-15T10:21:06;2.50;96.10
10459;DHT22;5277;48.722;8.736;2024-01-15T10:23:32;2.40;96.10
10459;DHT22;5277;48.722;8.736;2024-01-15T10:25:58;2.50;96.20
10459;DHT22;5277;48.722;8.736;2024-01-15T10:28:26;2.50;95.60
10459;DHT22;5277;48.722;8.736;2024-01-15T10:30:54;2.60;95.80
10459;DHT22;5277;48.722;8.736;2024-01-15T10:33:22;2.60;96.10
10459;DHT22;5277;48.722;8.736;2024-01-15T10:35:54;2.70;96.10
10459;DHT22;5277;48.722;8.736;2024-01-15T10:38:21;2.70;96.60
10459;DHT22;5277;48.722;8.736;2024-01-15T10:40:50;2.60;96.60
10459;DHT22;5277;48.722;8.736;2024-01-15T10:43:16;2.60;96.60
10459;DHT22;5277;48.722;8.736;2024-01-15T10:45:47;2.70;96.60
10459;DHT22;5277;48.722;8.736;2024-01-15T10:48:16;2.70;96.60
10459;DHT22;5277;48.722;8.736;2024-01-15T10:50:41;2.50;97.00
10459;DHT22;5277;48.722;8.736;2024-01-15T10:53:08;2.60;97.50
10459;DHT22;5277;48.722;8.736;2024-01-15T10:55:35;2.50;97.70
10459;DHT22;5277;48.722;8.736;2024-01-15T10:58:03;2.50;98.10
10459;DHT22;5277;48.722;8.736;2024-01-15T11:00:30;2.50;98.30
10459;DHT22;5277;48.722;8.736;2024-01-15T11:02:56;2.60;98.70
10459;DHT22;5277;48.722;8.736;2024-01-15T11:05:22;2.50;99.00
10459;DHT22;5277;48.722;8.736;2024-01-15T11:07:55;2.60;99.10
10459;DHT22;5277;48.722;8.736;2024-01-15T11:10:41;2.50;99.00
10459;DHT22;5277;48.722;8.736;2024-01-15T11:13:09;2.50;99.00
10459;DHT22;5277;48.722;8.736;2024-01-15T11:16:04;2.50;99.10
10459;DHT22;5277;48.722;8.736;2024-01-15T11:18:32;2.50;99.20
10459;DHT22;5277;48.722;8.736;2024-01-15T11:23:51;2.50;99.30
10459;DHT22;5277;48.722;8.736;2024-01-15T11:26:36;2.50;99.50
10459;DHT22;5277;48.722;8.736;2024-01-15T11:32:10;2.40;99.50
10459;DHT22;5277;48.722;8.736;2024-01-15T11:35:01;2.40;99.80
10459;DHT22;5277;48.722;8.736;2024-01-15T11:40:18;2.30;99.90
10459;DHT22;5277;48.722;8.736;2024-01-15T11:42:48;2.40;99.90
10459;DHT22;5277;48.722;8.736;2024-01-15T11:45:19;2.40;99.90
10459;DHT22;5277;48.722;8.736;2024-01-15T11:50:14;2.40;99.90
10459;DHT22;5277;48.722;8.736;2024-01-15T11:52:47;2.40;99.90
10459;DHT22;5277;48.722;8.736;2024-01-15T11:55:34;2.40;99.90
10459;DHT22;5277;48.722;8.736;2024-01-15T11:58:08;2.50;99.90
10459;DHT22;5277;48.722;8.736;2024-01-15T12:00:35;2.50;99.90
10459;DHT22;5277;48.722;8.736;2024-01-15T12:03:05;2.50;99.90
10459;DHT22;5277;48.722;8.736;2024-01-15T12:05:30;2.50;99.90
10459;DHT22;5277;48.722;8.736;2024-01-15T12:07:56;2.50;99.90
10459;DHT22;5277;48.722;8.736;2024-01-15T12:10:22;2.50;99.90
10459;DHT22;5277;48.722;8.736;2024-01-15T12:15:21;2.50;99.90
10459;DHT22;5277;48.722;8.736;2024-01-15T12:17:46;2.50;99.90
10459;DHT22;5277;48.722;8.736;2024-01-15T12:20:13;2.50;99.90
10459;DHT22;5277;48.722;8.736;2024-01-15T12:22:39;2.40;99.90
10459;DHT22;5277;48.722;8.736;2024-01-15T12:25:05;2.40;99.90
10459;DHT22;5277;48.722;8.736;2024-01-15T12:27:31;2.40;99.90
10459;DHT22;5277;48.722;8.736;2024-01-15T12:29:58;2.40;99.90
10459;DHT22;5277;48.722;8.736;2024-01-15T12:32:24;2.50;99.90
10459;DHT22;5277;48.722;8.736;2024-01-15T12:34:50;2.60;99.90
10459;DHT22;5277;48.722;8.736;2024-01-15T12:37:18;2.50;99.90
10459;DHT22;5277;48.722;8.736;2024-01-15T12:39:44;2.60;99.90
10459;DHT22;5277;48.722;8.736;2024-01-15T12:42:10;2.60;99.90
10459;DHT22;5277;48.722;8.736;2024-01-15T12:44:36;2.60;99.90
10459;DHT22;5277;48.722;8.736;2024-01-15T12:47:06;2.60;99.90
10459;DHT22;5277;48.722;8.736;2024-01-15T12:49:31;2.70;99.90
10459;DHT22;5277;48.722;8.736;2024-01-15T12:51:57;2.70;99.90
10459;DHT22;5277;48.722;8.736;2024-01-15T12:54:23;2.70;99.90
10459;DHT22;5277;48.722;8.736;2024-01-15T12:56:50;2.70;99.90
10459;DHT22;5277;48.722;8.736;2024-01-15T12:59:16;2.70;99.90
10459;DHT22;5277;48.722;8.736;2024-01-15T13:01:42;2.70;99.90
10459;DHT22;5277;48.722;8.736;2024-01-15T13:04:08;2.70;99.90
10459;DHT22;5277;48.722;8.736;2024-01-15T13:06:37;2.70;99.90
10459;DHT22;5277;48.722;8.736;2024-01-15T13:09:03;2.70;99.90
10459;DHT22;5277;48.722;8.736;2024-01-15T13:11:32;2.80;99.90
10459;DHT22;5277;48.722;8.736;2024-01-15T13:13:58;2.80;99.90
10459;DHT22;5277;48.722;8.736;2024-01-15T13:16:23;2.80;99.90
10459;DHT22;5277;48.722;8.736;2024-01-15T13:18:52;2.80;99.90
10459;DHT22;5277;48.722;8.736;2024-01-15T13:21:18;2.80;99.90
10459;DHT22;5277;48.722;8.736;2024-01-15T13:23:43;2.90;99.90
10459;DHT22;5277;48.722;8.736;2024-01-15T13:26:09;2.90;99.90
10459;DHT22;5277;48.722;8.736;2024-01-15T13:28:34;2.90;99.90
10459;DHT22;5277;48.722;8.736;2024-01-15T13:31:00;3.00;99.90
10459;DHT22;5277;48.722;8.736;2024-01-15T13:33:26;3.00;99.90
10459;DHT22;5277;48.722;8.736;2024-01-15T13:35:52;3.00;99.90
10459;DHT22;5277;48.722;8.736;2024-01-15T13:38:17;3.00;99.90
10459;DHT22;5277;48.722;8.736;2024-01-15T13:40:43;2.90;99.90
10459;DHT22;5277;48.722;8.736;2024-01-15T13:43:11;2.90;99.90
10459;DHT22;5277;48.722;8.736;2024-01-15T13:45:36;2.90;99.90
10459;DHT22;5277;48.722;8.736;2024-01-15T13:48:03;2.90;99.90
10459;DHT22;5277;48.722;8.736;2024-01-15T13:50:31;2.90;99.90
10459;DHT22;5277;48.722;8.736;2024-01-15T13:52:57;2.90;99.90
10459;DHT22;5277;48.722;8.736;2024-01-15T13:55:22;3.00;99.90
10459;DHT22;5277;48.722;8.736;2024-01-15T13:57:48;3.00;99.90
10459;DHT22;5277;48.722;8.736;2024-01-15T14:00:14;3.00;99.90
10459;DHT22;5277;48.722;8.736;2024-01-15T14:02:44;3.10;99.90
10459;DHT22;5277;48.722;8.736;2024-01-15T14:05:09;3.00;99.90
10459;DHT22;5277;48.722;8.736;2024-01-15T14:07:38;3.00;99.90
10459;DHT22;5277;48.722;8.736;2024-01-15T14:10:05;3.10;99.90
10459;DHT22;5277;48.722;8.736;2024-01-15T14:12:33;3.00;99.90
10459;DHT22;5277;48.722;8.736;2024-01-15T14:14:58;3.00;99.90
10459;DHT22;5277;48.722;8.736;2024-01-15T14:17:24;3.00;99.90
10459;DHT22;5277;48.722;8.736;2024-01-15T14:19:49;2.90;99.90
10459;DHT22;5277;48.722;8.736;2024-01-15T14:22:15;2.80;99.90
10459;DHT22;5277;48.722;8.736;2024-01-15T14:24:41;2.60;99.90
10459;DHT22;5277;48.722;8.736;2024-01-15T14:27:06;2.60;99.90
10459;DHT22;5277;48.722;8.736;2024-01-15T14:29:32;2.30;99.90
10459;DHT22;5277;48.722;8.736;2024-01-15T14:31:58;2.40;99.90
10459;DHT22;5277;48.722;8.736;2024-01-15T14:34:25;2.40;99.90
10459;DHT22;5277;48.722;8.736;2024-01-15T14:36:51;2.30;99.90
10459;DHT22;5277;48.722;8.736;2024-01-15T14:39:21;2.30;99.90
10459;DHT22;5277;48.722;8.736;2024-01-15T14:41:47;2.20;99.90
10459;DHT22;5277;48.722;8.736;2024-01-15T14:44:12;2.20;99.90
10459;DHT22;5277;48.722;8.736;2024-01-15T14:46:39;2.20;99.90
10459;DHT22;5277;48.722;8.736;2024-01-15T14:49:04;2.10;99.90
10459;DHT22;5277;48.722;8.736;2024-01-15T14:51:30;2.20;99.90
10459;DHT22;5277;48.722;8.736;2024-01-15T14:53:56;2.20;99.90
10459;DHT22;5277;48.722;8.736;2024-01-15T14:56:21;2.20;99.90
10459;DHT22;5277;48.722;8.736;2024-01-15T14:58:47;2.20;99.90
10459;DHT22;5277;48.722;8.736;2024-01-15T15:01:13;2.20;99.90
10459;DHT22;5277;48.722;8.736;2024-01-15T15:03:39;2.20;99.90
10459;DHT22;5277;48.722;8.736;2024-01-15T15:06:05;2.20;99.90
10459;DHT22;5277;48.722;8.736;2024-01-15T15:08:33;2.10;99.90
10459;DHT22;5277;48.722;8.736;2024-01-15T15:10:59;2.10;99.90
10459;DHT22;5277;48.722;8.736;2024-01-15T15:13:25;2.00;99.90
10459;DHT22;5277;48.722;8.736;2024-01-15T15:15:51;1.90;99.90
10459;DHT22;5277;48.722;8.736;2024-01-15T15:18:17;1.80;99.90
10459;DHT22;5277;48.722;8.736;2024-01-15T15:20:43;1.80;99.90
10459;DHT22;5277;48.722;8.736;2024-01-15T15:23:08;1.80;99.90
10459;DHT22;5277;48.722;8.736;2024-01-15T15:25:36;1.80;99.90
10459;DHT22;5277;48.722;8.736;2024-01-15T15:28:02;1.70;99.90
10459;DHT22;5277;48.722;8.736;2024-01-15T15:30:30;1.70;99.90
10459;DHT22;5277;48.722;8.736;2024-01-15T15:32:56;1.70;99.90
10459;DHT22;5277;48.722;8.736;2024-01-15T15:35:21;1.70;99.90
10459;DHT22;5277;48.722;8.736;2024-01-15T15:37:47;1.70;99.90
10459;DHT22;5277;48.722;8.736;2024-01-15T15:40:13;1.70;99.90
10459;DHT22;5277;48.722;8.736;2024-01-15T15:42:38;1.70;99.90
10459;DHT22;5277;48.722;8.736;2024-01-15T15:45:04;1.60;99.90
10459;DHT22;5277;48.722;8.736;2024-01-15T15:47:31;1.60;99.90
10459;DHT22;5277;48.722;8.736;2024-01-15T15:49:56;1.60;99.90
10459;DHT22;5277;48.722;8.736;2024-01-15T15:52:22;1.60;99.90
10459;DHT22;5277;48.722;8.736;2024-01-15T15:54:48;1.60;99.90
10459;DHT22;5277;48.722;8.736;2024-01-15T15:57:13;1.50;99.90
10459;DHT22;5277;48.722;8.736;2024-01-15T15:59:39;1.50;99.90
10459;DHT22;5277;48.722;8.736;2024-01-15T16:02:04;1.50;99.90
10459;DHT22;5277;48.722;8.736;2024-01-15T16:04:30;1.50;99.90